sensor_id;sensor_type;location;lat;lon;timestamp;P1;durP1;ratioP1;P2;durP2;ratioP2
79414;SDS011;68864;44.972;19.612;2024-01-11T00:00:08;75.57;;;38.28;;
79414;SDS011;68864;44.972;19.612;2024-01-11T00:05:04;74.40;;;33.63;;
79414;SDS011;68864;44.972;19.612;2024-01-11T00:07:31;74.90;;;39.28;;
79414;SDS011;68864;44.972;19.612;2024-01-11T00:09:58;79.47;;;41.30;;
79414;SDS011;68864;44.972;19.612;2024-01-11T00:12:27;81.65;;;36.40;;
79414;SDS011;68864;44.972;19.612;2024-01-11T00:14:54;72.53;;;36.20;;
79414;SDS011;68864;44.972;19.612;2024-01-11T00:17:21;82.88;;;35.60;;
79414;SDS011;68864;44.972;19.612;2024-01-11T00:19:48;84.68;;;43.50;;
79414;SDS011;68864;44.972;19.612;2024-01-11T00:22:17;73.38;;;33.35;;
79414;SDS011;68864;44.972;19.612;2024-01-11T00:24:44;99.45;;;52.70;;
79414;SDS011;68864;44.972;19.612;2024-01-11T00:27:10;108.07;;;44.70;;
79414;SDS011;68864;44.972;19.612;2024-01-11T00:29:37;121.82;;;46.28;;
79414;SDS011;68864;44.972;19.612;2024-01-11T00:32:04;138.88;;;50.13;;
79414;SDS011;68864;44.972;19.612;2024-01-11T00:34:31;137.60;;;61.38;;
79414;SDS011;68864;44.972;19.612;2024-01-11T00:36:58;127.80;;;55.58;;
79414;SDS011;68864;44.972;19.612;2024-01-11T00:39:27;139.60;;;57.00;;
79414;SDS011;68864;44.972;19.612;2024-01-11T00:41:54;141.82;;;62.25;;
79414;SDS011;68864;44.972;19.612;2024-01-11T00:44:21;154.27;;;64.20;;
79414;SDS011;68864;44.972;19.612;2024-01-11T00:46:48;150.43;;;54.92;;
79414;SDS011;68864;44.972;19.612;2024-01-11T00:49:15;189.18;;;68.15;;
79414;SDS011;68864;44.972;19.612;2024-01-11T00:51:42;167.65;;;61.85;;
79414;SDS011;68864;44.972;19.612;2024-01-11T00:54:08;236.00;;;84.50;;
79414;SDS011;68864;44.972;19.612;2024-01-11T00:56:37;220.68;;;80.50;;
79414;SDS011;68864;44.972;19.612;2024-01-11T00:59:04;179.82;;;74.22;;
79414;SDS011;68864;44.972;19.612;2024-01-11T01:01:31;183.23;;;75.85;;
79414;SDS011;68864;44.972;19.612;2024-01-11T01:03:58;170.45;;;59.63;;
79414;SDS011;68864;44.972;19.612;2024-01-11T01:06:25;173.63;;;63.92;;
79414;SDS011;68864;44.972;19.612;2024-01-11T01:08:52;166.82;;;65.65;;
79414;SDS011;68864;44.972;19.612;2024-01-11T01:13:48;152.05;;;56.67;;
79414;SDS011;68864;44.972;19.612;2024-01-11T01:16:15;175.90;;;64.15;;
79414;SDS011;68864;44.972;19.612;2024-01-11T01:18:43;170.80;;;70.72;;
79414;SDS011;68864;44.972;19.612;2024-01-11T01:21:10;161.20;;;65.00;;
79414;SDS011;68864;44.972;19.612;2024-01-11T01:23:36;143.85;;;57.42;;
79414;SDS011;68864;44.972;19.612;2024-01-11T01:26:03;142.63;;;52.95;;
79414;SDS011;68864;44.972;19.612;2024-01-11T01:28:30;129.13;;;51.67;;
79414;SDS011;68864;44.972;19.612;2024-01-11T01:30:59;127.30;;;61.78;;
79414;SDS011;68864;44.972;19.612;2024-01-11T01:33:26;127.80;;;50.17;;
79414;SDS011;68864;44.972;19.612;2024-01-11T01:35:53;120.35;;;57.33;;
79414;SDS011;68864;44.972;19.612;2024-01-11T01:38:19;115.13;;;48.35;;
79414;SDS011;68864;44.972;19.612;2024-01-11T01:40:46;121.72;;;48.80;;
79414;SDS011;68864;44.972;19.612;2024-01-11T01:43:13;126.72;;;42.40;;
79414;SDS011;68864;44.972;19.612;2024-01-11T01:45:40;110.20;;;43.53;;
79414;SDS011;68864;44.972;19.612;2024-01-11T01:48:08;109.75;;;50.63;;
79414;SDS011;68864;44.972;19.612;2024-01-11T01:50:35;92.78;;;43.15;;
79414;SDS011;68864;44.972;19.612;2024-01-11T01:53:02;101.10;;;42.47;;
79414;SDS011;68864;44.972;19.612;2024-01-11T01:55:30;96.15;;;40.75;;
79414;SDS011;68864;44.972;19.612;2024-01-11T01:57:57;76.20;;;33.40;;
79414;SDS011;68864;44.972;19.612;2024-01-11T02:00:26;74.03;;;38.25;;
79414;SDS011;68864;44.972;19.612;2024-01-11T02:02:53;64.97;;;31.80;;
79414;SDS011;68864;44.972;19.612;2024-01-11T02:05:23;64.75;;;31.13;;
79414;SDS011;68864;44.972;19.612;2024-01-11T02:07:50;73.55;;;38.33;;
79414;SDS011;68864;44.972;19.612;2024-01-11T02:10:18;77.18;;;38.22;;
79414;SDS011;68864;44.972;19.612;2024-01-11T02:12:45;74.03;;;36.00;;
79414;SDS011;68864;44.972;19.612;2024-01-11T02:15:13;84.10;;;45.83;;
79414;SDS011;68864;44.972;19.612;2024-01-11T02:17:40;95.80;;;47.40;;
79414;SDS011;68864;44.972;19.612;2024-01-11T02:20:08;89.60;;;40.67;;
79414;SDS011;68864;44.972;19.612;2024-01-11T02:22:38;96.72;;;47.20;;
79414;SDS011;68864;44.972;19.612;2024-01-11T02:25:08;86.55;;;39.25;;
79414;SDS011;68864;44.972;19.612;2024-01-11T02:27:44;94.93;;;49.78;;
79414;SDS011;68864;44.972;19.612;2024-01-11T02:30:13;90.00;;;39.22;;
79414;SDS011;68864;44.972;19.612;2024-01-11T02:32:40;99.05;;;49.47;;
79414;SDS011;68864;44.972;19.612;2024-01-11T02:35:09;80.95;;;37.38;;
79414;SDS011;68864;44.972;19.612;2024-01-11T02:37:37;93.45;;;40.72;;
79414;SDS011;68864;44.972;19.612;2024-01-11T02:40:05;97.90;;;42.45;;
79414;SDS011;68864;44.972;19.612;2024-01-11T02:42:35;96.18;;;43.08;;
79414;SDS011;68864;44.972;19.612;2024-01-11T02:45:02;95.28;;;48.47;;
79414;SDS011;68864;44.972;19.612;2024-01-11T02:47:29;94.20;;;50.50;;
79414;SDS011;68864;44.972;19.612;2024-01-11T02:49:56;85.78;;;42.72;;
79414;SDS011;68864;44.972;19.612;2024-01-11T02:52:23;99.22;;;40.13;;
79414;SDS011;68864;44.972;19.612;2024-01-11T02:54:50;108.22;;;49.63;;
79414;SDS011;68864;44.972;19.612;2024-01-11T02:57:18;88.85;;;42.50;;
79414;SDS011;68864;44.972;19.612;2024-01-11T02:59:45;102.70;;;51.00;;
79414;SDS011;68864;44.972;19.612;2024-01-11T03:02:12;109.20;;;46.22;;
79414;SDS011;68864;44.972;19.612;2024-01-11T03:04:39;102.72;;;50.35;;
79414;SDS011;68864;44.972;19.612;2024-01-11T03:07:06;93.90;;;40.08;;
79414;SDS011;68864;44.972;19.612;2024-01-11T03:09:33;87.82;;;41.67;;
79414;SDS011;68864;44.972;19.612;2024-01-11T03:12:00;105.97;;;44.95;;
79414;SDS011;68864;44.972;19.612;2024-01-11T03:14:28;98.28;;;43.60;;
79414;SDS011;68864;44.972;19.612;2024-01-11T03:16:55;98.20;;;52.53;;
79414;SDS011;68864;44.972;19.612;2024-01-11T03:19:22;108.22;;;48.42;;
79414;SDS011;68864;44.972;19.612;2024-01-11T03:21:49;95.50;;;43.60;;
79414;SDS011;68864;44.972;19.612;2024-01-11T03:24:16;104.18;;;45.60;;
79414;SDS011;68864;44.972;19.612;2024-01-11T03:26:43;97.30;;;48.42;;
79414;SDS011;68864;44.972;19.612;2024-01-11T03:29:10;93.25;;;48.38;;
79414;SDS011;68864;44.972;19.612;2024-01-11T03:31:38;96.53;;;51.75;;
79414;SDS011;68864;44.972;19.612;2024-01-11T03:34:06;94.43;;;50.22;;
79414;SDS011;68864;44.972;19.612;2024-01-11T03:36:33;87.85;;;39.83;;
79414;SDS011;68864;44.972;19.612;2024-01-11T03:39:00;102.05;;;50.72;;
79414;SDS011;68864;44.972;19.612;2024-01-11T03:41:27;97.45;;;42.33;;
79414;SDS011;68864;44.972;19.612;2024-01-11T03:43:54;107.80;;;52.45;;
79414;SDS011;68864;44.972;19.612;2024-01-11T03:46:21;102.75;;;50.17;;
79414;SDS011;68864;44.972;19.612;2024-01-11T03:48:49;108.93;;;45.78;;
79414;SDS011;68864;44.972;19.612;2024-01-11T03:51:16;101.95;;;43.90;;
79414;SDS011;68864;44.972;19.612;2024-01-11T03:53:43;108.45;;;45.35;;
79414;SDS011;68864;44.972;19.612;2024-01-11T03:56:10;107.95;;;48.60;;
79414;SDS011;68864;44.972;19.612;2024-01-11T03:58:37;106.32;;;50.05;;
79414;SDS011;68864;44.972;19.612;2024-01-11T04:01:06;105.72;;;54.65;;
79414;SDS011;68864;44.972;19.612;2024-01-11T04:03:35;96.55;;;40.95;;
79414;SDS011;68864;44.972;19.612;2024-01-11T04:06:03;108.80;;;54.22;;
79414;SDS011;68864;44.972;19.612;2024-01-11T04:08:31;105.85;;;42.58;;
79414;SDS011;68864;44.972;19.612;2024-01-11T04:10:58;104.00;;;49.08;;
79414;SDS011;68864;44.972;19.612;2024-01-11T04:13:28;102.30;;;42.55;;
79414;SDS011;68864;44.972;19.612;2024-01-11T04:15:55;109.20;;;46.80;;
79414;SDS011;68864;44.972;19.612;2024-01-11T04:18:22;118.05;;;50.20;;
79414;SDS011;68864;44.972;19.612;2024-01-11T04:20:49;105.15;;;42.80;;
79414;SDS011;68864;44.972;19.612;2024-01-11T04:23:17;107.72;;;50.55;;
79414;SDS011;68864;44.972;19.612;2024-01-11T04:25:44;95.85;;;39.17;;
79414;SDS011;68864;44.972;19.612;2024-01-11T04:28:11;123.07;;;47.50;;
79414;SDS011;68864;44.972;19.612;2024-01-11T04:30:38;119.00;;;55.00;;
79414;SDS011;68864;44.972;19.612;2024-01-11T04:33:05;122.40;;;53.75;;
79414;SDS011;68864;44.972;19.612;2024-01-11T04:35:32;116.68;;;48.55;;
79414;SDS011;68864;44.972;19.612;2024-01-11T04:37:58;125.38;;;47.55;;
79414;SDS011;68864;44.972;19.612;2024-01-11T04:40:27;122.32;;;54.63;;
79414;SDS011;68864;44.972;19.612;2024-01-11T04:42:54;119.43;;;44.70;;
79414;SDS011;68864;44.972;19.612;2024-01-11T04:45:20;117.35;;;54.88;;
79414;SDS011;68864;44.972;19.612;2024-01-11T04:47:49;117.28;;;44.83;;
79414;SDS011;68864;44.972;19.612;2024-01-11T04:50:17;111.72;;;44.83;;
79414;SDS011;68864;44.972;19.612;2024-01-11T04:52:44;116.88;;;46.22;;
79414;SDS011;68864;44.972;19.612;2024-01-11T04:55:11;110.32;;;45.10;;
79414;SDS011;68864;44.972;19.612;2024-01-11T04:57:39;122.90;;;45.53;;
79414;SDS011;68864;44.972;19.612;2024-01-11T05:00:06;125.63;;;56.95;;
79414;SDS011;68864;44.972;19.612;2024-01-11T05:05:00;115.32;;;43.58;;
79414;SDS011;68864;44.972;19.612;2024-01-11T05:07:27;117.70;;;54.33;;
79414;SDS011;68864;44.972;19.612;2024-01-11T05:09:54;115.55;;;53.22;;
79414;SDS011;68864;44.972;19.612;2024-01-11T05:12:21;116.82;;;44.97;;
79414;SDS011;68864;44.972;19.612;2024-01-11T05:14:49;117.00;;;45.95;;
79414;SDS011;68864;44.972;19.612;2024-01-11T05:17:16;114.13;;;48.63;;
79414;SDS011;68864;44.972;19.612;2024-01-11T05:19:43;134.20;;;51.47;;
79414;SDS011;68864;44.972;19.612;2024-01-11T05:22:10;125.43;;;57.58;;
79414;SDS011;68864;44.972;19.612;2024-01-11T05:24:37;130.35;;;59.00;;
79414;SDS011;68864;44.972;19.612;2024-01-11T05:27:04;133.23;;;52.17;;
79414;SDS011;68864;44.972;19.612;2024-01-11T05:29:31;121.75;;;46.83;;
79414;SDS011;68864;44.972;19.612;2024-01-11T05:31:59;126.78;;;47.08;;
79414;SDS011;68864;44.972;19.612;2024-01-11T05:34:26;127.25;;;58.60;;
79414;SDS011;68864;44.972;19.612;2024-01-11T05:36:53;123.50;;;54.60;;
79414;SDS011;68864;44.972;19.612;2024-01-11T05:39:20;122.47;;;47.67;;
79414;SDS011;68864;44.972;19.612;2024-01-11T05:41:47;103.53;;;50.92;;
79414;SDS011;68864;44.972;19.612;2024-01-11T05:44:14;104.38;;;42.67;;
79414;SDS011;68864;44.972;19.612;2024-01-11T05:46:41;114.88;;;49.95;;
79414;SDS011;68864;44.972;19.612;2024-01-11T05:49:09;108.55;;;41.85;;
79414;SDS011;68864;44.972;19.612;2024-01-11T05:51:36;106.43;;;49.60;;
79414;SDS011;68864;44.972;19.612;2024-01-11T05:54:03;102.03;;;41.22;;
79414;SDS011;68864;44.972;19.612;2024-01-11T05:56:30;90.13;;;42.30;;
79414;SDS011;68864;44.972;19.612;2024-01-11T05:58:57;110.88;;;45.15;;
79414;SDS011;68864;44.972;19.612;2024-01-11T06:01:24;87.85;;;39.10;;
79414;SDS011;68864;44.972;19.612;2024-01-11T06:03:51;90.68;;;34.75;;
79414;SDS011;68864;44.972;19.612;2024-01-11T06:06:19;93.65;;;42.53;;
79414;SDS011;68864;44.972;19.612;2024-01-11T06:08:46;93.20;;;40.85;;
79414;SDS011;68864;44.972;19.612;2024-01-11T06:11:13;88.95;;;44.80;;
79414;SDS011;68864;44.972;19.612;2024-01-11T06:13:43;82.05;;;34.72;;
79414;SDS011;68864;44.972;19.612;2024-01-11T06:16:10;91.30;;;36.05;;
79414;SDS011;68864;44.972;19.612;2024-01-11T06:18:37;87.57;;;38.38;;
79414;SDS011;68864;44.972;19.612;2024-01-11T06:21:04;87.95;;;34.63;;
79414;SDS011;68864;44.972;19.612;2024-01-11T06:23:32;96.40;;;46.00;;
79414;SDS011;68864;44.972;19.612;2024-01-11T06:25:59;80.68;;;32.40;;
79414;SDS011;68864;44.972;19.612;2024-01-11T06:28:26;71.93;;;37.72;;
79414;SDS011;68864;44.972;19.612;2024-01-11T06:30:53;72.65;;;35.63;;
79414;SDS011;68864;44.972;19.612;2024-01-11T06:33:19;74.80;;;30.92;;
79414;SDS011;68864;44.972;19.612;2024-01-11T06:35:46;83.88;;;36.33;;
79414;SDS011;68864;44.972;19.612;2024-01-11T06:38:13;68.85;;;32.58;;
79414;SDS011;68864;44.972;19.612;2024-01-11T06:40:42;76.95;;;35.90;;
79414;SDS011;68864;44.972;19.612;2024-01-11T06:43:09;76.75;;;32.17;;
79414;SDS011;68864;44.972;19.612;2024-01-11T06:45:36;79.60;;;35.80;;
79414;SDS011;68864;44.972;19.612;2024-01-11T06:48:04;67.45;;;28.38;;
79414;SDS011;68864;44.972;19.612;2024-01-11T06:50:38;72.13;;;35.15;;
79414;SDS011;68864;44.972;19.612;2024-01-11T06:56:28;66.38;;;27.40;;
79414;SDS011;68864;44.972;19.612;2024-01-11T06:58:55;77.65;;;29.70;;
79414;SDS011;68864;44.972;19.612;2024-01-11T07:01:22;74.32;;;32.83;;
79414;SDS011;68864;44.972;19.612;2024-01-11T07:03:49;72.85;;;36.53;;
79414;SDS011;68864;44.972;19.612;2024-01-11T07:06:16;67.10;;;26.23;;
79414;SDS011;68864;44.972;19.612;2024-01-11T07:08:43;88.30;;;40.35;;
79414;SDS011;68864;44.972;19.612;2024-01-11T07:11:10;80.80;;;32.67;;
79414;SDS011;68864;44.972;19.612;2024-01-11T07:13:38;81.32;;;36.38;;
79414;SDS011;68864;44.972;19.612;2024-01-11T07:16:05;77.72;;;31.55;;
79414;SDS011;68864;44.972;19.612;2024-01-11T07:18:32;84.95;;;39.35;;
79414;SDS011;68864;44.972;19.612;2024-01-11T07:20:59;86.38;;;35.17;;
79414;SDS011;68864;44.972;19.612;2024-01-11T07:23:26;98.63;;;42.47;;
79414;SDS011;68864;44.972;19.612;2024-01-11T07:25:54;91.20;;;39.75;;
79414;SDS011;68864;44.972;19.612;2024-01-11T07:28:21;103.75;;;41.05;;
79414;SDS011;68864;44.972;19.612;2024-01-11T07:30:52;100.20;;;40.58;;
79414;SDS011;68864;44.972;19.612;2024-01-11T07:33:19;111.60;;;42.97;;
79414;SDS011;68864;44.972;19.612;2024-01-11T07:35:46;88.00;;;36.08;;
79414;SDS011;68864;44.972;19.612;2024-01-11T07:38:13;97.82;;;38.30;;
79414;SDS011;68864;44.972;19.612;2024-01-11T07:40:40;113.55;;;48.38;;
79414;SDS011;68864;44.972;19.612;2024-01-11T07:43:06;109.40;;;48.38;;
79414;SDS011;68864;44.972;19.612;2024-01-11T07:45:33;108.93;;;39.22;;
79414;SDS011;68864;44.972;19.612;2024-01-11T07:48:02;112.53;;;43.08;;
79414;SDS011;68864;44.972;19.612;2024-01-11T07:50:30;106.53;;;49.10;;
79414;SDS011;68864;44.972;19.612;2024-01-11T07:52:57;105.28;;;40.30;;
79414;SDS011;68864;44.972;19.612;2024-01-11T07:55:24;99.65;;;43.70;;
79414;SDS011;68864;44.972;19.612;2024-01-11T07:57:51;94.85;;;44.63;;
79414;SDS011;68864;44.972;19.612;2024-01-11T08:00:18;92.25;;;38.42;;
79414;SDS011;68864;44.972;19.612;2024-01-11T08:02:45;95.15;;;35.92;;
79414;SDS011;68864;44.972;19.612;2024-01-11T08:05:14;105.10;;;41.72;;
79414;SDS011;68864;44.972;19.612;2024-01-11T08:07:41;91.95;;;35.65;;
79414;SDS011;68864;44.972;19.612;2024-01-11T08:10:08;84.85;;;39.13;;
79414;SDS011;68864;44.972;19.612;2024-01-11T08:12:35;82.88;;;35.95;;
79414;SDS011;68864;44.972;19.612;2024-01-11T08:15:02;81.03;;;36.90;;
79414;SDS011;68864;44.972;19.612;2024-01-11T08:17:30;81.53;;;37.00;;
79414;SDS011;68864;44.972;19.612;2024-01-11T08:19:57;72.30;;;28.80;;
79414;SDS011;68864;44.972;19.612;2024-01-11T08:22:25;65.43;;;27.65;;
79414;SDS011;68864;44.972;19.612;2024-01-11T08:24:53;70.13;;;26.35;;
79414;SDS011;68864;44.972;19.612;2024-01-11T08:27:21;73.18;;;34.65;;
79414;SDS011;68864;44.972;19.612;2024-01-11T08:29:48;70.03;;;26.88;;
79414;SDS011;68864;44.972;19.612;2024-01-11T08:32:15;78.18;;;32.00;;
79414;SDS011;68864;44.972;19.612;2024-01-11T08:34:42;66.70;;;33.40;;
79414;SDS011;68864;44.972;19.612;2024-01-11T08:37:09;73.93;;;35.88;;
79414;SDS011;68864;44.972;19.612;2024-01-11T08:39:37;72.40;;;34.22;;
79414;SDS011;68864;44.972;19.612;2024-01-11T08:42:04;90.30;;;41.40;;
79414;SDS011;68864;44.972;19.612;2024-01-11T08:44:31;81.22;;;32.20;;
79414;SDS011;68864;44.972;19.612;2024-01-11T08:46:58;81.78;;;31.77;;
79414;SDS011;68864;44.972;19.612;2024-01-11T08:49:25;68.88;;;33.53;;
79414;SDS011;68864;44.972;19.612;2024-01-11T08:51:52;71.30;;;34.60;;
79414;SDS011;68864;44.972;19.612;2024-01-11T08:54:19;88.97;;;39.80;;
79414;SDS011;68864;44.972;19.612;2024-01-11T08:56:47;71.65;;;36.95;;
79414;SDS011;68864;44.972;19.612;2024-01-11T08:59:14;71.85;;;30.25;;
79414;SDS011;68864;44.972;19.612;2024-01-11T09:01:41;80.30;;;32.40;;
79414;SDS011;68864;44.972;19.612;2024-01-11T09:04:08;77.88;;;30.73;;
79414;SDS011;68864;44.972;19.612;2024-01-11T09:06:35;78.53;;;35.83;;
79414;SDS011;68864;44.972;19.612;2024-01-11T09:09:02;75.47;;;36.83;;
79414;SDS011;68864;44.972;19.612;2024-01-11T09:11:34;81.55;;;37.10;;
79414;SDS011;68864;44.972;19.612;2024-01-11T09:14:02;70.30;;;27.77;;
79414;SDS011;68864;44.972;19.612;2024-01-11T09:16:29;79.40;;;36.42;;
79414;SDS011;68864;44.972;19.612;2024-01-11T09:18:56;71.30;;;36.88;;
79414;SDS011;68864;44.972;19.612;2024-01-11T09:21:25;75.82;;;36.65;;
79414;SDS011;68864;44.972;19.612;2024-01-11T09:23:52;68.07;;;34.70;;
79414;SDS011;68864;44.972;19.612;2024-01-11T09:26:19;77.60;;;28.25;;
79414;SDS011;68864;44.972;19.612;2024-01-11T09:28:45;80.20;;;37.65;;
79414;SDS011;68864;44.972;19.612;2024-01-11T09:31:14;79.70;;;29.52;;
79414;SDS011;68864;44.972;19.612;2024-01-11T09:33:41;73.80;;;30.25;;
79414;SDS011;68864;44.972;19.612;2024-01-11T09:36:10;75.10;;;30.42;;
79414;SDS011;68864;44.972;19.612;2024-01-11T09:38:38;68.72;;;27.08;;
79414;SDS011;68864;44.972;19.612;2024-01-11T09:41:06;64.18;;;32.63;;
79414;SDS011;68864;44.972;19.612;2024-01-11T09:43:38;61.75;;;25.92;;
79414;SDS011;68864;44.972;19.612;2024-01-11T09:46:07;57.55;;;25.77;;
79414;SDS011;68864;44.972;19.612;2024-01-11T09:48:39;64.85;;;25.83;;
79414;SDS011;68864;44.972;19.612;2024-01-11T09:51:10;55.40;;;25.10;;
79414;SDS011;68864;44.972;19.612;2024-01-11T09:53:37;59.08;;;25.63;;
79414;SDS011;68864;44.972;19.612;2024-01-11T09:56:05;64.68;;;27.50;;
79414;SDS011;68864;44.972;19.612;2024-01-11T09:58:35;64.43;;;28.98;;
79414;SDS011;68864;44.972;19.612;2024-01-11T10:01:03;61.45;;;33.22;;
79414;SDS011;68864;44.972;19.612;2024-01-11T10:03:35;77.55;;;35.50;;
79414;SDS011;68864;44.972;19.612;2024-01-11T10:06:04;72.32;;;30.05;;
79414;SDS011;68864;44.972;19.612;2024-01-11T10:08:33;79.38;;;40.10;;
79414;SDS011;68864;44.972;19.612;2024-01-11T10:11:00;67.57;;;28.98;;
79414;SDS011;68864;44.972;19.612;2024-01-11T10:13:28;79.75;;;40.42;;
79414;SDS011;68864;44.972;19.612;2024-01-11T10:16:07;78.35;;;33.83;;
79414;SDS011;68864;44.972;19.612;2024-01-11T10:18:35;92.25;;;37.13;;
79414;SDS011;68864;44.972;19.612;2024-01-11T10:21:02;85.72;;;34.10;;
79414;SDS011;68864;44.972;19.612;2024-01-11T10:23:34;107.15;;;47.97;;
79414;SDS011;68864;44.972;19.612;2024-01-11T10:26:01;101.28;;;42.10;;
79414;SDS011;68864;44.972;19.612;2024-01-11T10:28:28;97.13;;;40.40;;
79414;SDS011;68864;44.972;19.612;2024-01-11T10:30:55;91.30;;;38.38;;
79414;SDS011;68864;44.972;19.612;2024-01-11T10:33:22;97.75;;;39.75;;
79414;SDS011;68864;44.972;19.612;2024-01-11T10:35:49;90.38;;;34.50;;
79414;SDS011;68864;44.972;19.612;2024-01-11T10:38:16;98.53;;;43.13;;
79414;SDS011;68864;44.972;19.612;2024-01-11T10:40:45;108.15;;;42.60;;
79414;SDS011;68864;44.972;19.612;2024-01-11T10:43:12;105.40;;;39.22;;
79414;SDS011;68864;44.972;19.612;2024-01-11T10:45:45;120.80;;;51.85;;
79414;SDS011;68864;44.972;19.612;2024-01-11T10:48:18;115.07;;;47.85;;
79414;SDS011;68864;44.972;19.612;2024-01-11T10:50:49;124.25;;;57.70;;
79414;SDS011;68864;44.972;19.612;2024-01-11T10:53:24;134.43;;;60.90;;
79414;SDS011;68864;44.972;19.612;2024-01-11T10:55:56;131.60;;;59.28;;
79414;SDS011;68864;44.972;19.612;2024-01-11T10:58:25;128.00;;;50.03;;
79414;SDS011;68864;44.972;19.612;2024-01-11T11:00:53;137.40;;;60.33;;
79414;SDS011;68864;44.972;19.612;2024-01-11T11:03:21;118.75;;;48.28;;
79414;SDS011;68864;44.972;19.612;2024-01-11T11:05:51;126.63;;;53.40;;
79414;SDS011;68864;44.972;19.612;2024-01-11T11:08:20;116.57;;;45.25;;
79414;SDS011;68864;44.972;19.612;2024-01-11T11:10:49;130.18;;;58.13;;
79414;SDS011;68864;44.972;19.612;2024-01-11T11:13:22;129.30;;;58.88;;
79414;SDS011;68864;44.972;19.612;2024-01-11T11:15:49;140.57;;;59.15;;
79414;SDS011;68864;44.972;19.612;2024-01-11T11:18:16;139.00;;;58.50;;
79414;SDS011;68864;44.972;19.612;2024-01-11T11:20:44;126.68;;;57.03;;
79414;SDS011;68864;44.972;19.612;2024-01-11T11:23:12;122.20;;;52.80;;
79414;SDS011;68864;44.972;19.612;2024-01-11T11:25:42;115.35;;;44.22;;
79414;SDS011;68864;44.972;19.612;2024-01-11T11:28:11;101.55;;;43.13;;
79414;SDS011;68864;44.972;19.612;2024-01-11T11:30:40;92.07;;;42.65;;
79414;SDS011;68864;44.972;19.612;2024-01-11T11:33:08;92.00;;;43.47;;
79414;SDS011;68864;44.972;19.612;2024-01-11T11:35:36;82.53;;;35.50;;
79414;SDS011;68864;44.972;19.612;2024-01-11T11:38:03;86.57;;;43.15;;
79414;SDS011;68864;44.972;19.612;2024-01-11T11:40:32;92.05;;;41.92;;
79414;SDS011;68864;44.972;19.612;2024-01-11T11:43:02;105.65;;;43.70;;
79414;SDS011;68864;44.972;19.612;2024-01-11T11:45:30;83.88;;;42.50;;
79414;SDS011;68864;44.972;19.612;2024-01-11T11:47:59;81.57;;;34.63;;
79414;SDS011;68864;44.972;19.612;2024-01-11T11:50:26;66.25;;;25.50;;
79414;SDS011;68864;44.972;19.612;2024-01-11T11:52:53;69.25;;;32.67;;
79414;SDS011;68864;44.972;19.612;2024-01-11T11:55:22;58.80;;;25.17;;
79414;SDS011;68864;44.972;19.612;2024-01-11T11:57:50;73.63;;;37.28;;
79414;SDS011;68864;44.972;19.612;2024-01-11T12:00:18;58.53;;;24.85;;
79414;SDS011;68864;44.972;19.612;2024-01-11T12:05:16;61.50;;;25.27;;
79414;SDS011;68864;44.972;19.612;2024-01-11T12:07:44;60.80;;;31.83;;
79414;SDS011;68864;44.972;19.612;2024-01-11T12:10:11;47.92;;;21.92;;
79414;SDS011;68864;44.972;19.612;2024-01-11T12:12:38;58.67;;;24.65;;
79414;SDS011;68864;44.972;19.612;2024-01-11T12:15:06;56.15;;;24.50;;
79414;SDS011;68864;44.972;19.612;2024-01-11T12:17:35;54.33;;;26.98;;
79414;SDS011;68864;44.972;19.612;2024-01-11T12:20:04;58.28;;;30.13;;
79414;SDS011;68864;44.972;19.612;2024-01-11T12:22:34;52.70;;;28.45;;
79414;SDS011;68864;44.972;19.612;2024-01-11T12:25:01;54.13;;;24.52;;
79414;SDS011;68864;44.972;19.612;2024-01-11T12:27:28;55.80;;;31.65;;
79414;SDS011;68864;44.972;19.612;2024-01-11T12:29:57;47.95;;;20.95;;
79414;SDS011;68864;44.972;19.612;2024-01-11T12:32:23;50.22;;;23.58;;
79414;SDS011;68864;44.972;19.612;2024-01-11T12:34:50;56.03;;;31.48;;
79414;SDS011;68864;44.972;19.612;2024-01-11T12:37:18;76.65;;;34.10;;
79414;SDS011;68864;44.972;19.612;2024-01-11T12:39:48;71.97;;;29.10;;
79414;SDS011;68864;44.972;19.612;2024-01-11T12:42:15;73.88;;;33.72;;
79414;SDS011;68864;44.972;19.612;2024-01-11T12:44:42;69.57;;;27.38;;
79414;SDS011;68864;44.972;19.612;2024-01-11T12:47:09;68.65;;;34.50;;
79414;SDS011;68864;44.972;19.612;2024-01-11T12:49:36;65.55;;;34.47;;
79414;SDS011;68864;44.972;19.612;2024-01-11T12:52:04;65.57;;;31.55;;
79414;SDS011;68864;44.972;19.612;2024-01-11T12:54:31;58.80;;;30.80;;
79414;SDS011;68864;44.972;19.612;2024-01-11T12:56:59;60.17;;;30.45;;
79414;SDS011;68864;44.972;19.612;2024-01-11T12:59:27;71.32;;;26.13;;
79414;SDS011;68864;44.972;19.612;2024-01-11T13:01:54;56.33;;;22.80;;
79414;SDS011;68864;44.972;19.612;2024-01-11T13:04:22;53.13;;;29.92;;
79414;SDS011;68864;44.972;19.612;2024-01-11T13:09:16;72.90;;;34.13;;
79414;SDS011;68864;44.972;19.612;2024-01-11T13:11:43;59.58;;;25.60;;
79414;SDS011;68864;44.972;19.612;2024-01-11T13:14:11;61.35;;;27.70;;
79414;SDS011;68864;44.972;19.612;2024-01-11T13:16:44;68.35;;;29.73;;
79414;SDS011;68864;44.972;19.612;2024-01-11T13:19:11;67.65;;;33.22;;
79414;SDS011;68864;44.972;19.612;2024-01-11T13:21:38;71.32;;;36.83;;
79414;SDS011;68864;44.972;19.612;2024-01-11T13:24:05;79.78;;;39.53;;
79414;SDS011;68864;44.972;19.612;2024-01-11T13:26:33;69.05;;;27.02;;
79414;SDS011;68864;44.972;19.612;2024-01-11T13:29:01;63.20;;;25.67;;
79414;SDS011;68864;44.972;19.612;2024-01-11T13:31:30;76.88;;;36.42;;
79414;SDS011;68864;44.972;19.612;2024-01-11T13:33:57;67.30;;;32.67;;
79414;SDS011;68864;44.972;19.612;2024-01-11T13:36:24;82.72;;;43.65;;
79414;SDS011;68864;44.972;19.612;2024-01-11T13:38:51;70.78;;;29.88;;
79414;SDS011;68864;44.972;19.612;2024-01-11T13:41:18;77.60;;;37.47;;
79414;SDS011;68864;44.972;19.612;2024-01-11T13:43:46;77.93;;;32.90;;
79414;SDS011;68864;44.972;19.612;2024-01-11T13:46:13;78.65;;;33.58;;
79414;SDS011;68864;44.972;19.612;2024-01-11T13:48:44;71.82;;;30.45;;
79414;SDS011;68864;44.972;19.612;2024-01-11T13:51:11;91.80;;;41.72;;
79414;SDS011;68864;44.972;19.612;2024-01-11T13:53:40;97.15;;;38.67;;
79414;SDS011;68864;44.972;19.612;2024-01-11T13:56:07;92.03;;;44.95;;
79414;SDS011;68864;44.972;19.612;2024-01-11T13:58:34;97.50;;;46.25;;
79414;SDS011;68864;44.972;19.612;2024-01-11T14:01:01;86.43;;;37.28;;
79414;SDS011;68864;44.972;19.612;2024-01-11T14:03:29;92.85;;;42.50;;
79414;SDS011;68864;44.972;19.612;2024-01-11T14:05:57;87.50;;;43.05;;
79414;SDS011;68864;44.972;19.612;2024-01-11T14:08:25;105.03;;;45.40;;
79414;SDS011;68864;44.972;19.612;2024-01-11T14:10:52;107.95;;;52.05;;
79414;SDS011;68864;44.972;19.612;2024-01-11T14:13:19;93.57;;;41.90;;
79414;SDS011;68864;44.972;19.612;2024-01-11T14:15:46;101.32;;;49.80;;
79414;SDS011;68864;44.972;19.612;2024-01-11T14:18:16;94.50;;;38.42;;
79414;SDS011;68864;44.972;19.612;2024-01-11T14:20:42;89.88;;;37.00;;